Time;durP1;ratioP1;P1;durP2;ratioP2;P2;SDS_P1;SDS_P2;PMS_P1;PMS_P2;Temp;Humidity;BMP_temperature;BMP_pressure;BME280_temperature;BME280_humidity;BME280_pressure;Samples;Min_cycle;Max_cycle;Signal;HPM_P1;HPM_P2
2022/11/22 00:00:24;;;;;;;;;0.00;0.00;;;;;;;;5028578;28;11390;-87
2022/11/22 00:02:54;;;;;;;;;0.50;0.00;;;;;;;;5030510;28;11545;-87
2022/11/22 00:05:21;;;;;;;;;3.00;1.00;;;;;;;;5028092;28;11574;-86
2022/11/22 00:07:49;;;;;;;;;0.25;0.25;;;;;;;;5026765;28;11430;-86
2022/11/22 00:10:17;;;;;;;;;0.75;0.75;;;;;;;;5021014;28;11579;-86
2022/11/22 00:12:47;;;;;;;;;1.00;1.00;;;;;;;;5011481;28;11430;-86
2022/11/22 00:15:14;;;;;;;;;0.00;0.00;;;;;;;;5029843;28;11546;-86
2022/11/22 00:17:42;;;;;;;;;0.00;0.00;;;;;;;;5028111;28;11420;-86
2022/11/22 00:20:10;;;;;;;;;2.00;0.00;;;;;;;;5012194;28;11477;-86
2022/11/22 00:22:39;;;;;;;;;0.00;0.00;;;;;;;;5011382;28;11453;-86
2022/11/22 00:25:08;;;;;;;;;1.00;1.00;;;;;;;;5006419;28;11512;-86
2022/11/22 00:27:35;;;;;;;;;2.00;0.50;;;;;;;;5029251;28;11437;-86
2022/11/22 00:30:05;;;;;;;;;1.75;0.00;;;;;;;;5028227;28;11433;-86
2022/11/22 00:32:32;;;;;;;;;0.50;0.50;;;;;;;;5029317;28;11444;-86
2022/11/22 00:35:00;;;;;;;;;1.00;1.00;;;;;;;;5020506;28;11510;-86
2022/11/22 00:37:28;;;;;;;;;0.25;0.25;;;;;;;;5027815;28;11493;-86
2022/11/22 00:39:56;;;;;;;;;0.75;0.50;;;;;;;;5010821;28;11456;-86
2022/11/22 00:42:23;;;;;;;;;0.75;0.75;;;;;;;;5031629;28;11450;-86
2022/11/22 00:44:51;;;;;;;;;0.00;0.00;;;;;;;;5030369;28;11462;-85
2022/11/22 00:47:20;;;;;;;;;0.50;0.50;;;;;;;;5029928;28;11416;-85
2022/11/22 00:49:47;;;;;;;;;1.50;1.00;;;;;;;;5028433;28;11464;-85
2022/11/22 00:52:15;;;;;;;;;0.00;0.00;;;;;;;;5030383;28;12178;-85
2022/11/22 00:54:44;;;;;;;;;0.00;0.00;;;;;;;;5012088;28;11439;-85
2022/11/22 00:57:11;;;;;;;;;0.00;0.00;;;;;;;;5026591;28;11414;-85
2022/11/22 00:59:39;;;;;;;;;1.00;1.00;;;;;;;;5013590;28;11463;-86
2022/11/22 01:02:06;;;;;;;;;0.00;0.00;;;;;;;;5008393;28;11415;-84
2022/11/22 01:04:35;;;;;;;;;0.00;0.00;;;;;;;;5031033;28;11458;-85
2022/11/22 01:07:03;;;;;;;;;0.50;0.50;;;;;;;;5030373;28;11413;-85
2022/11/22 01:09:31;;;;;;;;;1.25;1.00;;;;;;;;5031174;28;11435;-85
2022/11/22 01:11:58;;;;;;;;;1.50;1.00;;;;;;;;5028230;28;11430;-86
2022/11/22 01:14:26;;;;;;;;;1.50;1.50;;;;;;;;5010139;28;11443;-85
2022/11/22 01:16:54;;;;;;;;;0.50;0.50;;;;;;;;5026062;28;11524;-85
2022/11/22 01:19:21;;;;;;;;;3.25;2.00;;;;;;;;5007861;28;11447;-85
2022/11/22 01:21:51;;;;;;;;;0.00;0.00;;;;;;;;5036182;28;11421;-85
2022/11/22 01:24:18;;;;;;;;;0.75;0.75;;;;;;;;5028110;28;11448;-84
2022/11/22 01:26:46;;;;;;;;;0.00;0.00;;;;;;;;5030899;28;11475;-85
2022/11/22 01:29:14;;;;;;;;;1.00;1.00;;;;;;;;5016098;28;11447;-85
2022/11/22 01:31:41;;;;;;;;;0.00;0.00;;;;;;;;5025111;28;11411;-84
2022/11/22 01:34:09;;;;;;;;;2.00;0.00;;;;;;;;5013580;28;11469;-85
2022/11/22 01:36:37;;;;;;;;;1.25;1.00;;;;;;;;5008069;28;11478;-85
2022/11/22 01:39:06;;;;;;;;;2.00;0.00;;;;;;;;5012983;28;11395;-84
2022/11/22 01:41:34;;;;;;;;;0.00;0.00;;;;;;;;5028157;28;11414;-85
2022/11/22 01:44:23;;;;;;;;;0.75;0.75;;;;;;;;5009360;28;11459;-85
2022/11/22 01:46:52;;;;;;;;;1.00;1.00;;;;;;;;5022091;28;11487;-85
2022/11/22 01:49:26;;;;;;;;;0.00;0.00;;;;;;;;5026526;28;11465;-85
2022/11/22 01:51:57;;;;;;;;;1.00;1.00;;;;;;;;5009626;28;11561;-85
2022/11/22 01:54:29;;;;;;;;;1.00;1.00;;;;;;;;5013797;28;11429;-86
2022/11/22 01:57:00;;;;;;;;;2.00;0.25;;;;;;;;5015160;28;11444;-85
2022/11/22 01:59:29;;;;;;;;;1.00;1.00;;;;;;;;4996712;28;11472;-86
2022/11/22 02:01:57;;;;;;;;;0.00;0.00;;;;;;;;5003897;28;11468;-84
2022/11/22 02:04:27;;;;;;;;;3.25;0.50;;;;;;;;5011972;28;11507;-85
2022/11/22 02:07:00;;;;;;;;;1.00;1.00;;;;;;;;5028468;28;11442;-85
2022/11/22 02:09:30;;;;;;;;;2.00;0.25;;;;;;;;5028440;28;11570;-86
2022/11/22 02:12:01;;;;;;;;;0.00;0.00;;;;;;;;5031645;28;11478;-86
2022/11/22 02:14:31;;;;;;;;;3.25;1.25;;;;;;;;5028629;28;11484;-85
2022/11/22 02:17:00;;;;;;;;;0.25;0.25;;;;;;;;5014819;28;11419;-85
2022/11/22 02:19:34;;;;;;;;;2.25;1.00;;;;;;;;5013563;28;11366;-85
2022/11/22 02:22:08;;;;;;;;;0.00;0.00;;;;;;;;5016137;28;11442;-85
2022/11/22 02:24:42;;;;;;;;;1.00;1.00;;;;;;;;5032253;28;11467;-85
2022/11/22 02:27:10;;;;;;;;;0.75;0.75;;;;;;;;5020572;28;11466;-85
2022/11/22 02:29:39;;;;;;;;;1.25;1.25;;;;;;;;5023449;28;11439;-84
2022/11/22 02:32:06;;;;;;;;;2.00;2.00;;;;;;;;5010589;28;11483;-85
2022/11/22 02:34:43;;;;;;;;;0.75;0.75;;;;;;;;5013026;28;11593;-85
2022/11/22 02:37:12;;;;;;;;;1.00;1.00;;;;;;;;5027506;28;11436;-84
2022/11/22 02:39:40;;;;;;;;;1.00;1.00;;;;;;;;5028992;28;11473;-85
2022/11/22 02:42:10;;;;;;;;;1.00;1.00;;;;;;;;5017913;28;11454;-85
2022/11/22 02:44:38;;;;;;;;;2.00;1.00;;;;;;;;5011241;28;11519;-86
2022/11/22 02:47:06;;;;;;;;;0.50;0.50;;;;;;;;5019012;28;11475;-84
2022/11/22 02:49:34;;;;;;;;;0.25;0.25;;;;;;;;5027605;28;11476;-85
2022/11/22 02:52:01;;;;;;;;;2.00;1.00;;;;;;;;5015498;28;11437;-84
2022/11/22 02:54:29;;;;;;;;;1.50;1.00;;;;;;;;5027093;28;11470;-84
2022/11/22 02:56:56;;;;;;;;;0.75;0.75;;;;;;;;5021087;28;11437;-84
2022/11/22 02:59:26;;;;;;;;;1.00;1.00;;;;;;;;5028631;28;11469;-85
2022/11/22 03:01:54;;;;;;;;;0.75;0.75;;;;;;;;5008078;28;11383;-84
2022/11/22 03:04:24;;;;;;;;;1.00;1.00;;;;;;;;5012204;28;11449;-84
2022/11/22 03:07:04;;;;;;;;;1.00;1.00;;;;;;;;5012488;28;11473;-84
2022/11/22 03:09:33;;;;;;;;;1.00;1.00;;;;;;;;5029073;28;11437;-85
2022/11/22 03:12:01;;;;;;;;;0.00;0.00;;;;;;;;5009178;28;11532;-84
2022/11/22 03:14:31;;;;;;;;;2.50;1.00;;;;;;;;5018452;28;11448;-84
2022/11/22 03:16:58;;;;;;;;;1.00;1.00;;;;;;;;5023478;28;11423;-84
2022/11/22 03:19:26;;;;;;;;;1.75;1.25;;;;;;;;4992992;28;11430;-84
2022/11/22 03:21:53;;;;;;;;;5.00;1.00;;;;;;;;5028086;28;11443;-84
2022/11/22 03:24:21;;;;;;;;;1.00;1.00;;;;;;;;5030087;28;11451;-84
2022/11/22 03:26:49;;;;;;;;;3.50;1.00;;;;;;;;5018562;28;11437;-84
2022/11/22 03:29:17;;;;;;;;;1.00;1.00;;;;;;;;5030286;28;11534;-84
2022/11/22 03:31:46;;;;;;;;;1.00;1.00;;;;;;;;5024727;28;11474;-84
2022/11/22 03:34:14;;;;;;;;;2.00;2.00;;;;;;;;5028137;28;11410;-84
2022/11/22 03:36:41;;;;;;;;;0.50;0.50;;;;;;;;5025292;28;11402;-84
2022/11/22 03:39:09;;;;;;;;;0.00;0.00;;;;;;;;5026054;28;11394;-84
2022/11/22 03:41:37;;;;;;;;;1.25;1.00;;;;;;;;5011795;28;11423;-84
2022/11/22 03:44:05;;;;;;;;;2.00;1.00;;;;;;;;5027123;28;11377;-83
2022/11/22 03:46:32;;;;;;;;;1.00;1.00;;;;;;;;5027220;28;11499;-83
2022/11/22 03:49:02;;;;;;;;;0.00;0.00;;;;;;;;5017264;28;11448;-83
2022/11/22 03:51:29;;;;;;;;;1.00;1.00;;;;;;;;5025810;28;11539;-84
2022/11/22 03:53:58;;;;;;;;;2.00;2.00;;;;;;;;5014969;28;11450;-85
2022/11/22 03:56:25;;;;;;;;;0.75;0.75;;;;;;;;5009707;28;11435;-83
2022/11/22 03:58:56;;;;;;;;;0.25;0.25;;;;;;;;5026774;28;11443;-84
2022/11/22 04:01:24;;;;;;;;;1.00;1.00;;;;;;;;5032132;28;11485;-83
2022/11/22 04:03:52;;;;;;;;;1.75;1.00;;;;;;;;5026356;28;12288;-83
2022/11/22 04:06:21;;;;;;;;;3.00;1.50;;;;;;;;5019930;28;12250;-84
2022/11/22 04:08:48;;;;;;;;;0.00;0.00;;;;;;;;5023821;28;11430;-83
2022/11/22 04:11:16;;;;;;;;;0.00;0.00;;;;;;;;5024165;28;11414;-84
2022/11/22 04:16:28;;;;;;;;;5.50;1.75;;;;;;;;5022186;28;11372;-83
2022/11/22 04:18:56;;;;;;;;;0.75;0.75;;;;;;;;5024527;28;11486;-82
2022/11/22 04:21:33;;;;;;;;;2.00;0.25;;;;;;;;5028978;28;11398;-84
2022/11/22 04:26:49;;;;;;;;;0.00;0.00;;;;;;;;5028271;28;11428;-83
2022/11/22 04:29:16;;;;;;;;;1.25;0.75;;;;;;;;5027623;28;11472;-83
2022/11/22 04:34:29;;;;;;;;;0.00;0.00;;;;;;;;5028583;28;11372;-83
2022/11/22 04:36:58;;;;;;;;;0.00;0.00;;;;;;;;5028141;28;12373;-84
2022/11/22 04:39:26;;;;;;;;;0.00;0.00;;;;;;;;5025533;28;11424;-84
2022/11/22 04:44:39;;;;;;;;;2.00;0.00;;;;;;;;5010204;28;11464;-84
2022/11/22 04:44:42;;;;;;;;;1.00;1.00;;;;;;;;5026475;28;11385;-84
2022/11/22 04:47:57;;;;;;;;;0.50;0.25;;;;;;;;5022966;28;11420;-84
2022/11/22 04:50:00;;;;;;;;;1.00;1.00;;;;;;;;5025793;28;11504;-84
2022/11/22 04:55:15;;;;;;;;;0.50;0.50;;;;;;;;5009265;28;11397;-83
2022/11/22 04:57:42;;;;;;;;;1.00;1.00;;;;;;;;5010704;28;11235;-85
2022/11/22 05:00:11;;;;;;;;;1.00;1.00;;;;;;;;5008529;28;11214;-84
2022/11/22 05:02:38;;;;;;;;;2.25;2.25;;;;;;;;5025584;28;11219;-84
2022/11/22 05:05:07;;;;;;;;;1.00;1.00;;;;;;;;5024546;28;11401;-87
2022/11/22 05:07:35;;;;;;;;;2.00;2.00;;;;;;;;5024908;28;11502;-85
2022/11/22 05:10:03;;;;;;;;;1.00;1.00;;;;;;;;5027113;28;11387;-84
2022/11/22 05:12:31;;;;;;;;;0.75;0.00;;;;;;;;5025719;28;11388;-84
2022/11/22 05:14:58;;;;;;;;;1.00;1.00;;;;;;;;5029022;28;11406;-84
2022/11/22 05:17:26;;;;;;;;;1.00;1.00;;;;;;;;5006848;28;11423;-84
2022/11/22 05:19:53;;;;;;;;;3.00;1.00;;;;;;;;5025404;28;11451;-84
2022/11/22 05:23:53;;;;;;;;;1.00;1.00;;;;;;;;5007276;28;11409;-84
2022/11/22 05:25:10;;;;;;;;;1.50;1.50;;;;;;;;5025981;28;11509;-84
2022/11/22 05:27:38;;;;;;;;;1.00;1.00;;;;;;;;4998739;28;11452;-84
2022/11/22 05:30:07;;;;;;;;;0.00;0.00;;;;;;;;5024454;28;11434;-84
2022/11/22 05:32:35;;;;;;;;;1.25;0.00;;;;;;;;5026677;28;11450;-84
2022/11/22 05:35:02;;;;;;;;;0.00;0.00;;;;;;;;5025909;28;11379;-84
2022/11/22 05:37:31;;;;;;;;;1.00;1.00;;;;;;;;5023581;28;11163;-85
2022/11/22 05:39:58;;;;;;;;;1.00;1.00;;;;;;;;4985408;28;11496;-85
2022/11/22 05:42:27;;;;;;;;;0.00;0.00;;;;;;;;5026253;28;11223;-85
2022/11/22 05:44:54;;;;;;;;;2.00;1.00;;;;;;;;5025401;28;11444;-84
2022/11/22 05:47:22;;;;;;;;;2.50;1.00;;;;;;;;5027350;28;11428;-84
2022/11/22 05:49:49;;;;;;;;;1.25;1.25;;;;;;;;5008298;28;12048;-85
2022/11/22 05:52:17;;;;;;;;;1.00;0.25;;;;;;;;5039127;28;11493;-85
2022/11/22 05:54:45;;;;;;;;;3.00;1.00;;;;;;;;5003870;28;11449;-85
2022/11/22 05:57:13;;;;;;;;;2.00;0.00;;;;;;;;5004934;28;11464;-85
2022/11/22 05:59:42;;;;;;;;;0.25;0.25;;;;;;;;5030044;28;11260;-85
2022/11/22 06:02:09;;;;;;;;;1.50;1.00;;;;;;;;5036087;28;11132;-84
2022/11/22 06:04:37;;;;;;;;;1.00;1.00;;;;;;;;5014877;28;11197;-84
2022/11/22 06:07:04;;;;;;;;;1.00;1.00;;;;;;;;5015064;28;11236;-84
2022/11/22 06:09:32;;;;;;;;;1.00;1.00;;;;;;;;5011579;28;11440;-84
2022/11/22 06:12:00;;;;;;;;;0.00;0.00;;;;;;;;5033297;28;11405;-84
2022/11/22 06:14:27;;;;;;;;;0.00;0.00;;;;;;;;5028343;28;11263;-83
2022/11/22 06:16:57;;;;;;;;;1.00;1.00;;;;;;;;5025604;28;11235;-84
2022/11/22 06:19:24;;;;;;;;;1.00;1.00;;;;;;;;5011864;28;11144;-84
2022/11/22 06:21:56;;;;;;;;;1.50;0.00;;;;;;;;5030322;28;11573;-84
2022/11/22 06:24:24;;;;;;;;;1.00;0.00;;;;;;;;5027817;28;11051;-84
2022/11/22 06:26:51;;;;;;;;;0.50;0.50;;;;;;;;5028736;28;11188;-83
2022/11/22 06:29:20;;;;;;;;;0.00;0.00;;;;;;;;5013813;28;11190;-84
2022/11/22 06:31:47;;;;;;;;;1.00;1.00;;;;;;;;4994866;28;11059;-83
2022/11/22 06:34:16;;;;;;;;;2.00;0.00;;;;;;;;5027226;28;11316;-84
2022/11/22 06:36:45;;;;;;;;;0.00;0.00;;;;;;;;5008629;28;11150;-83
2022/11/22 06:39:13;;;;;;;;;2.00;0.00;;;;;;;;5010777;28;11041;-83
2022/11/22 06:41:41;;;;;;;;;2.00;0.75;;;;;;;;5012044;28;11023;-85
2022/11/22 06:44:09;;;;;;;;;0.00;0.00;;;;;;;;5010975;28;11162;-83
2022/11/22 06:46:38;;;;;;;;;0.00;0.00;;;;;;;;5009058;28;11091;-85
2022/11/22 06:49:05;;;;;;;;;2.00;0.00;;;;;;;;5009456;28;11060;-84
2022/11/22 06:51:35;;;;;;;;;0.00;0.00;;;;;;;;5012528;28;10955;-85
2022/11/22 06:54:02;;;;;;;;;0.00;0.00;;;;;;;;5013174;28;11033;-85
2022/11/22 06:56:32;;;;;;;;;0.00;0.00;;;;;;;;5028135;28;11204;-86
2022/11/22 06:59:03;;;;;;;;;0.00;0.00;;;;;;;;5027032;28;10866;-85
2022/11/22 07:01:34;;;;;;;;;0.00;0.00;;;;;;;;5027365;28;11089;-84
2022/11/22 07:04:03;;;;;;;;;2.75;0.00;;;;;;;;5019433;28;10955;-84
2022/11/22 07:06:34;;;;;;;;;0.00;0.00;;;;;;;;5029023;28;11070;-83
2022/11/22 07:09:06;;;;;;;;;0.00;0.00;;;;;;;;5026785;28;11050;-84
2022/11/22 07:11:33;;;;;;;;;0.00;0.00;;;;;;;;5029183;28;10948;-84
2022/11/22 07:14:02;;;;;;;;;0.00;0.00;;;;;;;;5026507;28;10960;-82
2022/11/22 07:16:30;;;;;;;;;0.00;0.00;;;;;;;;5029877;28;10858;-83
2022/11/22 07:19:00;;;;;;;;;0.00;0.00;;;;;;;;5026120;28;10981;-85
2022/11/22 07:21:28;;;;;;;;;1.50;0.00;;;;;;;;5029244;28;11062;-84
2022/11/22 07:24:00;;;;;;;;;0.00;0.00;;;;;;;;5027411;28;10909;-87
2022/11/22 07:26:30;;;;;;;;;0.00;0.00;;;;;;;;5029000;28;10997;-86
2022/11/22 07:28:57;;;;;;;;;0.00;0.00;;;;;;;;5010797;28;10964;-85
2022/11/22 07:31:27;;;;;;;;;2.00;0.00;;;;;;;;4995032;28;11022;-85
2022/11/22 07:34:01;;;;;;;;;0.00;0.00;;;;;;;;5008956;28;11034;-85
2022/11/22 07:36:29;;;;;;;;;0.00;0.00;;;;;;;;5028005;28;10982;-86
2022/11/22 07:38:58;;;;;;;;;0.00;0.00;;;;;;;;5025798;28;10966;-86
2022/11/22 07:41:28;;;;;;;;;1.50;0.00;;;;;;;;5024862;28;11067;-87
2022/11/22 07:43:58;;;;;;;;;0.00;0.00;;;;;;;;5026484;28;11031;-87
2022/11/22 07:46:30;;;;;;;;;0.00;0.00;;;;;;;;5011337;28;11051;-85
2022/11/22 07:48:59;;;;;;;;;0.00;0.00;;;;;;;;5028734;28;11098;-88
2022/11/22 07:51:27;;;;;;;;;0.00;0.00;;;;;;;;5029948;28;11167;-87
2022/11/22 07:53:55;;;;;;;;;0.00;0.00;;;;;;;;5029129;28;10906;-89
2022/11/22 07:56:25;;;;;;;;;0.00;0.00;;;;;;;;5026352;28;11030;-73
2022/11/22 07:58:57;;;;;;;;;0.00;0.00;;;;;;;;5034536;28;11204;-77
2022/11/22 08:01:24;;;;;;;;;0.00;0.00;;;;;;;;5023574;28;11019;-80
2022/11/22 08:03:52;;;;;;;;;0.00;0.00;;;;;;;;5023457;28;10977;-78
2022/11/22 08:06:20;;;;;;;;;1.00;0.00;;;;;;;;5023851;28;10996;-78
2022/11/22 08:08:47;;;;;;;;;0.00;0.00;;;;;;;;5006305;28;10966;-78
2022/11/22 08:11:15;;;;;;;;;0.00;0.00;;;;;;;;5025353;28;10803;-79
2022/11/22 08:13:44;;;;;;;;;0.25;0.00;;;;;;;;5007503;28;10811;-77
2022/11/22 08:16:14;;;;;;;;;0.00;0.00;;;;;;;;5025319;28;10835;-80
2022/11/22 08:18:45;;;;;;;;;0.00;0.00;;;;;;;;5023621;28;10825;-78
2022/11/22 08:21:17;;;;;;;;;0.75;0.00;;;;;;;;5007662;28;10871;-78
2022/11/22 08:23:45;;;;;;;;;0.00;0.00;;;;;;;;5005488;28;10798;-76
2022/11/22 08:26:15;;;;;;;;;0.00;0.00;;;;;;;;5023974;28;10808;-74
2022/11/22 08:28:44;;;;;;;;;0.00;0.00;;;;;;;;5023066;28;11530;-75
2022/11/22 08:31:13;;;;;;;;;0.00;0.00;;;;;;;;5023197;28;10812;-75
2022/11/22 08:33:41;;;;;;;;;0.00;0.00;;;;;;;;5021715;28;10675;-76
2022/11/22 08:36:09;;;;;;;;;0.00;0.00;;;;;;;;5021750;28;11543;-78
2022/11/22 08:38:37;;;;;;;;;0.00;0.00;;;;;;;;5006752;28;10919;-75
2022/11/22 08:41:06;;;;;;;;;0.00;0.00;;;;;;;;5026032;28;10968;-76
2022/11/22 08:43:33;;;;;;;;;0.00;0.00;;;;;;;;5022920;28;10812;-78
2022/11/22 08:46:03;;;;;;;;;0.00;0.00;;;;;;;;5024189;28;10780;-77
2022/11/22 08:48:34;;;;;;;;;0.00;0.00;;;;;;;;5023895;28;10732;-77
2022/11/22 08:51:04;;;;;;;;;0.00;0.00;;;;;;;;5026174;28;10826;-78
2022/11/22 08:53:33;;;;;;;;;0.00;0.00;;;;;;;;5019819;28;10880;-76
2022/11/22 08:56:01;;;;;;;;;0.00;0.00;;;;;;;;5006219;28;10891;-76
2022/11/22 08:58:31;;;;;;;;;0.00;0.00;;;;;;;;5022720;28;10905;-75
2022/11/22 09:01:06;;;;;;;;;0.00;0.00;;;;;;;;5023810;28;10908;-80
2022/11/22 09:03:37;;;;;;;;;0.00;0.00;;;;;;;;5022994;28;10726;-81
2022/11/22 09:06:05;;;;;;;;;0.00;0.00;;;;;;;;5022301;28;10735;-78
2022/11/22 09:08:35;;;;;;;;;0.00;0.00;;;;;;;;5021590;28;10725;-80
2022/11/22 09:11:03;;;;;;;;;1.00;0.00;;;;;;;;5024083;28;10810;-78
2022/11/22 09:13:31;;;;;;;;;0.00;0.00;;;;;;;;5021894;28;10674;-81
2022/11/22 09:16:02;;;;;;;;;0.00;0.00;;;;;;;;5007650;28;10655;-84
2022/11/22 09:18:32;;;;;;;;;0.00;0.00;;;;;;;;5022680;28;10788;-78
2022/11/22 09:20:59;;;;;;;;;0.25;0.00;;;;;;;;5019015;28;10662;-78
2022/11/22 09:23:27;;;;;;;;;0.00;0.00;;;;;;;;5022450;28;10822;-80
2022/11/22 09:25:59;;;;;;;;;0.00;0.00;;;;;;;;5021552;28;10713;-80
2022/11/22 09:28:27;;;;;;;;;0.00;0.00;;;;;;;;5020547;28;11493;-79
2022/11/22 09:31:00;;;;;;;;;0.00;0.00;;;;;;;;5022679;28;10671;-79
2022/11/22 09:33:28;;;;;;;;;0.00;0.00;;;;;;;;5024346;28;10616;-79
2022/11/22 09:36:01;;;;;;;;;0.00;0.00;;;;;;;;5024653;28;10866;-78
2022/11/22 09:38:29;;;;;;;;;0.00;0.00;;;;;;;;5023440;28;10570;-79
2022/11/22 09:40:57;;;;;;;;;2.00;0.00;;;;;;;;5023946;28;10715;-78
2022/11/22 09:43:34;;;;;;;;;0.75;0.00;;;;;;;;5024417;28;10727;-79
2022/11/22 09:46:15;;;;;;;;;1.00;0.00;;;;;;;;5004759;28;10746;-78
2022/11/22 09:49:21;;;;;;;;;0.00;0.00;;;;;;;;5023564;28;10793;-79
2022/11/22 09:51:57;;;;;;;;;0.00;0.00;;;;;;;;5016078;28;10811;-77
2022/11/22 09:54:27;;;;;;;;;0.00;0.00;;;;;;;;5005818;28;10613;-79
2022/11/22 09:56:58;;;;;;;;;0.00;0.00;;;;;;;;5028711;28;10717;-76
2022/11/22 09:59:30;;;;;;;;;0.00;0.00;;;;;;;;5025433;28;10728;-74
2022/11/22 10:02:02;;;;;;;;;0.00;0.00;;;;;;;;5022949;28;10797;-76
2022/11/22 10:04:34;;;;;;;;;0.00;0.00;;;;;;;;5023375;28;10653;-76
2022/11/22 10:07:08;;;;;;;;;0.00;0.00;;;;;;;;5025890;28;10677;-76
2022/11/22 10:09:39;;;;;;;;;0.75;0.75;;;;;;;;5005842;28;10577;-77
2022/11/22 10:12:11;;;;;;;;;0.00;0.00;;;;;;;;5005970;28;10719;-76
2022/11/22 10:14:48;;;;;;;;;0.00;0.00;;;;;;;;5022750;28;10747;-77
2022/11/22 10:17:27;;;;;;;;;1.50;0.00;;;;;;;;5003747;28;10734;-76
2022/11/22 10:20:07;;;;;;;;;0.00;0.00;;;;;;;;5025294;28;10751;-76
2022/11/22 10:22:36;;;;;;;;;0.00;0.00;;;;;;;;5021208;28;11638;-77
2022/11/22 10:25:09;;;;;;;;;0.00;0.00;;;;;;;;5021142;28;10847;-77
2022/11/22 10:27:37;;;;;;;;;0.00;0.00;;;;;;;;5016479;28;10585;-74
2022/11/22 10:30:13;;;;;;;;;0.00;0.00;;;;;;;;5018675;28;10619;-84
2022/11/22 10:32:47;;;;;;;;;0.00;0.00;;;;;;;;5024931;28;10517;-82
2022/11/22 10:35:26;;;;;;;;;0.00;0.00;;;;;;;;5019289;28;10807;-79
2022/11/22 10:38:04;;;;;;;;;4.00;1.00;;;;;;;;5025187;28;10529;-77
2022/11/22 10:40:38;;;;;;;;;0.00;0.00;;;;;;;;5024392;28;10610;-76
2022/11/22 10:43:18;;;;;;;;;1.00;1.00;;;;;;;;4990948;28;10651;-75
2022/11/22 10:45:49;;;;;;;;;0.50;0.50;;;;;;;;5024926;28;10773;-80
2022/11/22 10:48:24;;;;;;;;;0.50;0.50;;;;;;;;5024657;28;10657;-74
2022/11/22 10:50:59;;;;;;;;;0.50;0.00;;;;;;;;5005011;28;11005;-80
2022/11/22 10:53:41;;;;;;;;;0.50;0.50;;;;;;;;5023409;28;10666;-76
2022/11/22 10:56:14;;;;;;;;;2.00;0.00;;;;;;;;5019801;28;10425;-75
2022/11/22 11:01:46;;;;;;;;;0.25;0.00;;;;;;;;5012989;28;10601;-81
2022/11/22 11:04:15;;;;;;;;;1.50;0.75;;;;;;;;5013423;28;10616;-80
2022/11/22 11:06:44;;;;;;;;;0.25;0.25;;;;;;;;5012137;28;10681;-78
2022/11/22 11:09:19;;;;;;;;;1.50;1.50;;;;;;;;5023020;28;10450;-78
2022/11/22 11:11:47;;;;;;;;;6.00;0.00;;;;;;;;5027755;28;10568;-80
2022/11/22 11:14:28;;;;;;;;;1.25;1.00;;;;;;;;5016193;28;10464;-77
2022/11/22 11:16:56;;;;;;;;;2.50;0.75;;;;;;;;5028927;28;10467;-78
2022/11/22 11:19:25;;;;;;;;;1.50;1.50;;;;;;;;5024050;28;10367;-80
2022/11/22 11:21:59;;;;;;;;;2.00;2.00;;;;;;;;4988224;28;10331;-79
2022/11/22 11:24:31;;;;;;;;;1.00;1.00;;;;;;;;5004614;28;10330;-76
2022/11/22 11:27:00;;;;;;;;;1.75;0.75;;;;;;;;5019230;28;10174;-81
2022/11/22 11:29:34;;;;;;;;;1.00;1.00;;;;;;;;5007815;28;10084;-81
2022/11/22 11:32:10;;;;;;;;;1.00;1.00;;;;;;;;5019824;28;10989;-78
2022/11/22 11:34:40;;;;;;;;;4.25;0.50;;;;;;;;5021706;28;10279;-75
2022/11/22 11:37:20;;;;;;;;;2.50;2.00;;;;;;;;5017706;28;11800;-75
2022/11/22 11:39:53;;;;;;;;;2.25;1.00;;;;;;;;5031952;28;10227;-82
2022/11/22 11:42:26;;;;;;;;;1.75;1.00;;;;;;;;5025232;28;10099;-82
2022/11/22 11:44:54;;;;;;;;;1.25;1.00;;;;;;;;5028023;28;10052;-78
2022/11/22 11:47:33;;;;;;;;;2.00;2.00;;;;;;;;5028103;28;10022;-78
2022/11/22 11:50:01;;;;;;;;;3.00;1.75;;;;;;;;5028210;28;10230;-74
2022/11/22 11:52:30;;;;;;;;;1.25;1.00;;;;;;;;5012906;28;9946;-75
2022/11/22 11:55:01;;;;;;;;;0.75;0.75;;;;;;;;5027937;28;9920;-74
2022/11/22 11:57:31;;;;;;;;;4.00;1.00;;;;;;;;5017937;28;10839;-74
2022/11/22 12:00:00;;;;;;;;;1.00;1.00;;;;;;;;5002017;28;10020;-73
2022/11/22 12:02:35;;;;;;;;;1.50;1.50;;;;;;;;5008683;28;9788;-74
2022/11/22 12:05:07;;;;;;;;;1.50;1.50;;;;;;;;5008536;28;9964;-81
2022/11/22 12:07:42;;;;;;;;;1.50;1.50;;;;;;;;5001162;28;9771;-77
2022/11/22 12:10:34;;;;;;;;;3.00;2.00;;;;;;;;5004017;28;9703;-77
2022/11/22 12:13:06;;;;;;;;;1.33;0.00;;;;;;;;5002890;28;9455;-77
2022/11/22 12:15:42;;;;;;;;;0.00;0.00;;;;;;;;5005748;28;9269;-77
2022/11/22 12:18:26;;;;;;;;;3.00;1.00;;;;;;;;5012217;28;9196;-76
2022/11/22 12:21:01;;;;;;;;;1.00;1.00;;;;;;;;5004647;28;9258;-75
2022/11/22 12:23:36;;;;;;;;;2.00;0.00;;;;;;;;4985608;28;9256;-75
2022/11/22 12:26:08;;;;;;;;;1.00;1.00;;;;;;;;5002934;28;9250;-77
2022/11/22 12:28:36;;;;;;;;;0.00;0.00;;;;;;;;5004216;28;9228;-80
2022/11/22 12:31:12;;;;;;;;;2.33;2.00;;;;;;;;4995107;28;9116;-79
2022/11/22 12:33:44;;;;;;;;;2.33;1.00;;;;;;;;4968218;28;9268;-76
2022/11/22 12:36:17;;;;;;;;;1.00;1.00;;;;;;;;4997772;28;9185;-75
2022/11/22 12:38:45;;;;;;;;;2.67;2.00;;;;;;;;4994972;28;9243;-76
2022/11/22 12:41:17;;;;;;;;;1.00;1.00;;;;;;;;5001108;28;9205;-76
2022/11/22 12:43:52;;;;;;;;;0.67;0.00;;;;;;;;5004840;28;10230;-75
2022/11/22 12:46:22;;;;;;;;;0.67;0.00;;;;;;;;4986141;28;9930;-76
2022/11/22 12:48:55;;;;;;;;;0.00;0.00;;;;;;;;4987717;28;9092;-77
2022/11/22 12:51:28;;;;;;;;;0.25;0.25;;;;;;;;5006980;28;8923;-75
2022/11/22 12:53:59;;;;;;;;;7.67;0.33;;;;;;;;5007851;28;10247;-76
2022/11/22 12:56:31;;;;;;;;;2.00;0.75;;;;;;;;5003478;28;8945;-74
2022/11/22 12:59:04;;;;;;;;;0.00;0.00;;;;;;;;5017847;28;8857;-75
2022/11/22 13:01:38;;;;;;;;;0.00;0.00;;;;;;;;5024927;28;8963;-75
2022/11/22 13:04:15;;;;;;;;;0.00;0.00;;;;;;;;5023744;28;8901;-76
2022/11/22 13:06:48;;;;;;;;;0.00;0.00;;;;;;;;5003015;28;8842;-76
2022/11/22 13:09:19;;;;;;;;;0.00;0.00;;;;;;;;5004129;28;8845;-73
2022/11/22 13:11:51;;;;;;;;;0.25;0.25;;;;;;;;5019687;28;8863;-74
2022/11/22 13:14:22;;;;;;;;;2.00;0.50;;;;;;;;5018869;28;8859;-75
2022/11/22 13:16:50;;;;;;;;;2.25;0.00;;;;;;;;4994684;28;8858;-76
2022/11/22 13:19:20;;;;;;;;;0.75;0.75;;;;;;;;5023100;28;8873;-76
2022/11/22 13:22:04;;;;;;;;;0.00;0.00;;;;;;;;5023483;28;8818;-76
2022/11/22 13:24:42;;;;;;;;;1.00;1.00;;;;;;;;5005197;28;8867;-76
2022/11/22 13:27:18;;;;;;;;;1.00;1.00;;;;;;;;5020050;28;8818;-76
2022/11/22 13:29:47;;;;;;;;;2.00;0.50;;;;;;;;5021195;28;8835;-76
2022/11/22 13:32:21;;;;;;;;;0.00;0.00;;;;;;;;5018583;28;8853;-75
2022/11/22 13:35:05;;;;;;;;;0.75;0.75;;;;;;;;5017975;28;9013;-76
2022/11/22 13:37:35;;;;;;;;;1.25;1.00;;;;;;;;5022442;28;8831;-75
2022/11/22 13:40:19;;;;;;;;;1.33;1.33;;;;;;;;5020507;28;9683;-77
2022/11/22 13:42:48;;;;;;;;;1.00;1.00;;;;;;;;4998493;28;9864;-76
2022/11/22 13:45:23;;;;;;;;;0.00;0.00;;;;;;;;5020451;28;9092;-76
2022/11/22 13:47:51;;;;;;;;;0.00;0.00;;;;;;;;5022019;28;9025;-76
2022/11/22 13:50:55;;;;;;;;;3.00;0.00;;;;;;;;5018790;28;9164;-76
2022/11/22 13:53:29;;;;;;;;;0.00;0.00;;;;;;;;5019745;28;9041;-75
2022/11/22 13:56:00;;;;;;;;;1.00;1.00;;;;;;;;5021166;28;9013;-76
2022/11/22 13:58:54;;;;;;;;;0.67;0.00;;;;;;;;5019705;28;9323;-75
2022/11/22 14:01:54;;;;;;;;;1.50;0.00;;;;;;;;5000718;28;9206;-76
2022/11/22 14:04:39;;;;;;;;;0.00;0.00;;;;;;;;5011328;28;9064;-76
2022/11/22 14:07:21;;;;;;;;;2.25;0.00;;;;;;;;5000589;28;8881;-76
2022/11/22 14:09:55;;;;;;;;;2.75;0.00;;;;;;;;5019580;28;9654;-76
2022/11/22 14:12:32;;;;;;;;;0.00;0.00;;;;;;;;5022910;28;8900;-76
2022/11/22 14:15:50;;;;;;;;;0.75;0.75;;;;;;;;5006046;28;8823;-75
2022/11/22 14:18:28;;;;;;;;;1.00;1.00;;;;;;;;4959478;28;8863;-76
2022/11/22 14:21:03;;;;;;;;;1.33;0.00;;;;;;;;4943824;28;8953;-76
2022/11/22 14:23:41;;;;;;;;;0.75;0.00;;;;;;;;4999183;28;9055;-74
2022/11/22 14:26:21;;;;;;;;;0.00;0.00;;;;;;;;5020088;28;8833;-76
2022/11/22 14:29:17;;;;;;;;;0.00;0.00;;;;;;;;5022731;28;8940;-76
2022/11/22 14:31:53;;;;;;;;;1.00;0.00;;;;;;;;5021586;28;9094;-77
2022/11/22 14:34:24;;;;;;;;;1.00;0.33;;;;;;;;5024340;28;9133;-75
2022/11/22 14:37:34;;;;;;;;;0.00;0.00;;;;;;;;5022915;28;9163;-76
2022/11/22 14:40:10;;;;;;;;;0.67;0.67;;;;;;;;5013270;28;9187;-76
2022/11/22 14:43:02;;;;;;;;;0.67;0.67;;;;;;;;5007819;28;9299;-77
2022/11/22 14:45:42;;;;;;;;;0.33;0.33;;;;;;;;5017590;28;9316;-76
2022/11/22 14:48:19;;;;;;;;;0.00;0.00;;;;;;;;5011843;28;9337;-76
2022/11/22 14:50:52;;;;;;;;;0.00;0.00;;;;;;;;5019031;28;9160;-76
2022/11/22 14:53:25;;;;;;;;;0.00;0.00;;;;;;;;5023982;28;9319;-76
2022/11/22 14:55:57;;;;;;;;;1.00;1.00;;;;;;;;5021144;28;9440;-76
2022/11/22 14:58:28;;;;;;;;;0.33;0.33;;;;;;;;5026927;28;9231;-75
2022/11/22 15:01:18;;;;;;;;;0.67;0.67;;;;;;;;5004573;28;10244;-76
2022/11/22 15:04:17;;;;;;;;;1.00;1.00;;;;;;;;5023869;28;9322;-75
2022/11/22 15:06:51;;;;;;;;;1.25;1.25;;;;;;;;5015363;28;9244;-75
2022/11/22 15:09:39;;;;;;;;;0.33;0.33;;;;;;;;5005688;28;9392;-76
2022/11/22 15:12:49;;;;;;;;;0.75;0.75;;;;;;;;5005558;28;9327;-76
2022/11/22 15:15:32;;;;;;;;;3.25;1.00;;;;;;;;5029367;28;9454;-77
2022/11/22 15:18:08;;;;;;;;;0.00;0.00;;;;;;;;5021235;28;9553;-76
2022/11/22 15:20:38;;;;;;;;;1.00;0.25;;;;;;;;5024598;28;9412;-76
2022/11/22 15:23:07;;;;;;;;;0.00;0.00;;;;;;;;5021415;28;9467;-77
2022/11/22 15:25:34;;;;;;;;;1.00;1.00;;;;;;;;5020983;28;9300;-76